N38TZ KSEZ-KLSV
Flight info
| Callsign | N38TZ |
|---|---|
| Flight time | 0h 29m |
| Altitude | 40000 |
| Route | DRK BLD |
| Aircraft | T38/M-DFILRTUVWY/A |
Departure
| Time | 2026-04-30 19:04 |
|---|---|
| Airport | Sedona Airport (KSEZ) |
Arrival
| Time | 2026-04-30 19:33 |
|---|---|
| Airport | Nellis Air Force Base (KLSV) |
| Time | Latitude | Longitude | Altitude | Speed | Heading |
|---|---|---|---|---|---|
| 2026-04-30 18:51 | 34.85337 | -111.78447 | 4835 ft | 0 kts | 224° |
| 2026-04-30 18:58 | 34.85337 | -111.78448 | 4826 ft | 1 kts | 218° |
| 2026-04-30 18:59 | 34.85330 | -111.78448 | 4831 ft | 0 kts | 155° |
| 2026-04-30 19:00 | 34.85320 | -111.78442 | 4826 ft | 4 kts | 152° |
| 2026-04-30 19:00 | 34.85308 | -111.78434 | 4825 ft | 0 kts | 146° |
| 2026-04-30 19:01 | 34.85304 | -111.78430 | 4841 ft | 1 kts | 145° |
| 2026-04-30 19:02 | 34.85319 | -111.78394 | 4827 ft | 5 kts | 44° |
| 2026-04-30 19:02 | 34.85358 | -111.78314 | 4830 ft | 3 kts | 122° |
| 2026-04-30 19:03 | 34.85316 | -111.78280 | 4833 ft | 7 kts | 200° |
| 2026-04-30 19:03 | 34.85274 | -111.78328 | 4831 ft | 28 kts | 226° |
| 2026-04-30 19:04 | 34.84138 | -111.79761 | 4957 ft | 169 kts | 224° |
| 2026-04-30 19:04 | 34.82441 | -111.82041 | 6718 ft | 226 kts | 229° |
| 2026-04-30 19:05 | 34.80907 | -111.86252 | 8467 ft | 324 kts | 261° |
| 2026-04-30 19:05 | 34.80659 | -111.91835 | 11745 ft | 372 kts | 269° |
| 2026-04-30 19:06 | 34.81118 | -111.98956 | 12850 ft | 440 kts | 279° |
| 2026-04-30 19:06 | 34.81609 | -112.02601 | 14805 ft | 431 kts | 279° |
| 2026-04-30 19:06 | 34.82710 | -112.09673 | 18317 ft | 434 kts | 278° |
| 2026-04-30 19:07 | 34.82827 | -112.16977 | 20420 ft | 445 kts | 266° |
| 2026-04-30 19:07 | 34.82638 | -112.20763 | 21372 ft | 450 kts | 265° |
| 2026-04-30 19:08 | 34.82112 | -112.28379 | 23679 ft | 453 kts | 263° |
| 2026-04-30 19:08 | 34.81246 | -112.36230 | 24370 ft | 479 kts | 259° |
| 2026-04-30 19:08 | 34.80640 | -112.40146 | 25890 ft | 463 kts | 260° |
| 2026-04-30 19:09 | 34.80320 | -112.47867 | 28816 ft | 461 kts | 271° |
| 2026-04-30 19:09 | 34.80589 | -112.51755 | 29546 ft | 465 kts | 274° |
| 2026-04-30 19:09 | 34.80946 | -112.55718 | 29814 ft | 479 kts | 274° |
| 2026-04-30 19:10 | 34.81679 | -112.64016 | 29340 ft | 508 kts | 270° |
| 2026-04-30 19:10 | 34.81807 | -112.71221 | 29754 ft | 519 kts | 270° |
| 2026-04-30 19:11 | 34.82152 | -112.76982 | 30763 ft | 513 kts | 288° |
| 2026-04-30 19:11 | 34.84711 | -112.83517 | 31210 ft | 523 kts | 293° |
| 2026-04-30 19:12 | 34.87644 | -112.91781 | 31631 ft | 536 kts | 292° |
| 2026-04-30 19:12 | 34.89244 | -112.95834 | 33136 ft | 532 kts | 294° |
| 2026-04-30 19:12 | 34.90897 | -112.99865 | 34372 ft | 532 kts | 294° |
| 2026-04-30 19:13 | 34.94453 | -113.08038 | 34674 ft | 552 kts | 294° |
| 2026-04-30 19:13 | 34.97823 | -113.15966 | 36912 ft | 518 kts | 294° |
| 2026-04-30 19:13 | 34.99410 | -113.19878 | 38069 ft | 512 kts | 292° |
| 2026-04-30 19:14 | 35.00886 | -113.23696 | 38931 ft | 498 kts | 290° |
| 2026-04-30 19:14 | 35.02289 | -113.27541 | 39267 ft | 494 kts | 289° |
| 2026-04-30 19:14 | 35.03634 | -113.31410 | 39324 ft | 496 kts | 289° |
| 2026-04-30 19:15 | 35.06239 | -113.39258 | 39285 ft | 503 kts | 288° |
| 2026-04-30 19:15 | 35.08991 | -113.47094 | 39715 ft | 501 kts | 292° |
| 2026-04-30 19:15 | 35.10537 | -113.50904 | 39918 ft | 502 kts | 294° |
| 2026-04-30 19:16 | 35.13801 | -113.58583 | 39841 ft | 514 kts | 298° |
| 2026-04-30 19:16 | 35.18511 | -113.65057 | 40291 ft | 519 kts | 318° |
| 2026-04-30 19:17 | 35.21347 | -113.67807 | 40249 ft | 523 kts | 319° |
| 2026-04-30 19:17 | 35.27023 | -113.73331 | 40897 ft | 511 kts | 318° |
| 2026-04-30 19:17 | 35.29789 | -113.76008 | 41362 ft | 505 kts | 319° |
| 2026-04-30 19:18 | 35.34356 | -113.80691 | 39928 ft | 535 kts | 316° |
| 2026-04-30 19:18 | 35.38081 | -113.84771 | 39950 ft | 537 kts | 316° |
| 2026-04-30 19:18 | 35.40860 | -113.87819 | 40159 ft | 533 kts | 316° |
| 2026-04-30 19:19 | 35.43557 | -113.90880 | 40660 ft | 523 kts | 314° |
| 2026-04-30 19:19 | 35.46145 | -113.93965 | 41181 ft | 514 kts | 313° |
| 2026-04-30 19:19 | 35.51214 | -114.00213 | 40744 ft | 529 kts | 313° |
| 2026-04-30 19:20 | 35.53819 | -114.03453 | 40511 ft | 535 kts | 313° |
| 2026-04-30 19:20 | 35.56432 | -114.06717 | 40458 ft | 536 kts | 313° |
| 2026-04-30 19:20 | 35.61716 | -114.13392 | 38077 ft | 569 kts | 313° |
| 2026-04-30 19:21 | 35.64574 | -114.17120 | 35037 ft | 625 kts | 313° |
| 2026-04-30 19:21 | 35.70537 | -114.25187 | 34002 ft | 631 kts | 311° |
| 2026-04-30 19:22 | 35.76368 | -114.33327 | 33633 ft | 640 kts | 310° |
| 2026-04-30 19:22 | 35.85069 | -114.46015 | 31790 ft | 656 kts | 308° |
| 2026-04-30 19:23 | 35.92534 | -114.60716 | 29115 ft | 687 kts | 298° |
| 2026-04-30 19:24 | 35.97418 | -114.70605 | 25853 ft | 692 kts | 302° |
| 2026-04-30 19:24 | 35.99988 | -114.75626 | 26168 ft | 708 kts | 306° |
| 2026-04-30 19:24 | 36.06602 | -114.84830 | 26895 ft | 723 kts | 314° |
| 2026-04-30 19:25 | 36.18180 | -114.97940 | 22954 ft | 751 kts | 319° |
| 2026-04-30 19:26 | 36.24910 | -115.06072 | 21226 ft | 590 kts | 305° |
| 2026-04-30 19:26 | 36.26469 | -115.15105 | 19695 ft | 505 kts | 268° |
| 2026-04-30 19:26 | 36.25286 | -115.18852 | 17168 ft | 448 kts | 228° |
| 2026-04-30 19:27 | 36.20295 | -115.21776 | 12857 ft | 372 kts | 206° |
| 2026-04-30 19:27 | 36.15815 | -115.24443 | 8220 ft | 345 kts | 206° |
| 2026-04-30 19:28 | 36.13749 | -115.25622 | 7498 ft | 301 kts | 205° |
| 2026-04-30 19:28 | 36.10189 | -115.25989 | 6091 ft | 270 kts | 123° |
| 2026-04-30 19:29 | 36.09833 | -115.22038 | 5380 ft | 236 kts | 57° |
| 2026-04-30 19:29 | 36.10682 | -115.20332 | 5369 ft | 233 kts | 56° |
| 2026-04-30 19:30 | 36.13395 | -115.15006 | 4848 ft | 239 kts | 47° |
| 2026-04-30 19:30 | 36.15617 | -115.12115 | 4387 ft | 219 kts | 41° |
| 2026-04-30 19:31 | 36.17511 | -115.10103 | 3570 ft | 147 kts | 40° |
| 2026-04-30 19:31 | 36.18257 | -115.09324 | 3211 ft | 133 kts | 42° |
| 2026-04-30 19:31 | 36.19529 | -115.07922 | 2619 ft | 126 kts | 42° |
| 2026-04-30 19:32 | 36.20203 | -115.07204 | 2477 ft | 130 kts | 39° |
| 2026-04-30 19:32 | 36.20937 | -115.06538 | 2339 ft | 132 kts | 39° |
| 2026-04-30 19:32 | 36.21626 | -115.05821 | 2219 ft | 127 kts | 41° |
| 2026-04-30 19:32 | 36.22279 | -115.05086 | 2029 ft | 127 kts | 39° |
| 2026-04-30 19:33 | 36.22944 | -115.04377 | 1900 ft | 120 kts | 41° |
| 2026-04-30 19:33 | 36.23466 | -115.03813 | 1898 ft | 81 kts | 40° |
| 2026-04-30 19:33 | 36.23790 | -115.03461 | 1896 ft | 39 kts | 40° |
| 2026-04-30 19:33 | 36.23925 | -115.03318 | 1895 ft | 25 kts | 40° |
| 2026-04-30 19:34 | 36.24069 | -115.03164 | 1899 ft | 28 kts | 40° |
| 2026-04-30 19:34 | 36.24217 | -115.03003 | 1901 ft | 20 kts | 41° |